sensor_id;sensor_type;location;lat;lon;timestamp;P1;durP1;ratioP1;P2;durP2;ratioP2
52942;SDS011;38809;53.300;6.614;2022-12-29T00:01:29;6.47;;;4.95;;
52942;SDS011;38809;53.300;6.614;2022-12-29T00:06:20;5.40;;;4.30;;
52942;SDS011;38809;53.300;6.614;2022-12-29T00:08:46;5.38;;;4.88;;
52942;SDS011;38809;53.300;6.614;2022-12-29T00:11:13;5.47;;;4.97;;
52942;SDS011;38809;53.300;6.614;2022-12-29T00:13:46;5.38;;;4.32;;
52942;SDS011;38809;53.300;6.614;2022-12-29T00:16:31;5.05;;;4.55;;
52942;SDS011;38809;53.300;6.614;2022-12-29T00:18:58;5.85;;;5.00;;
52942;SDS011;38809;53.300;6.614;2022-12-29T00:21:24;5.15;;;4.65;;
52942;SDS011;38809;53.300;6.614;2022-12-29T00:24:11;5.57;;;4.82;;
52942;SDS011;38809;53.300;6.614;2022-12-29T00:29:53;4.97;;;4.20;;
52942;SDS011;38809;53.300;6.614;2022-12-29T00:32:37;5.10;;;4.60;;
52942;SDS011;38809;53.300;6.614;2022-12-29T00:35:26;5.38;;;4.60;;
52942;SDS011;38809;53.300;6.614;2022-12-29T00:37:52;5.15;;;4.10;;
52942;SDS011;38809;53.300;6.614;2022-12-29T00:40:38;5.32;;;4.50;;
52942;SDS011;38809;53.300;6.614;2022-12-29T00:43:23;6.18;;;4.25;;
52942;SDS011;38809;53.300;6.614;2022-12-29T00:46:07;4.65;;;4.18;;
52942;SDS011;38809;53.300;6.614;2022-12-29T00:48:33;4.93;;;4.43;;
52942;SDS011;38809;53.300;6.614;2022-12-29T00:51:17;3.92;;;3.53;;
52942;SDS011;38809;53.300;6.614;2022-12-29T00:53:43;5.32;;;4.70;;
52942;SDS011;38809;53.300;6.614;2022-12-29T00:56:09;5.60;;;4.33;;
52942;SDS011;38809;53.300;6.614;2022-12-29T00:58:34;5.10;;;4.50;;
52942;SDS011;38809;53.300;6.614;2022-12-29T01:01:01;6.07;;;4.43;;
52942;SDS011;38809;53.300;6.614;2022-12-29T01:03:27;4.78;;;4.13;;
52942;SDS011;38809;53.300;6.614;2022-12-29T01:05:53;6.13;;;4.45;;
52942;SDS011;38809;53.300;6.614;2022-12-29T01:08:19;4.95;;;4.15;;
52942;SDS011;38809;53.300;6.614;2022-12-29T01:10:44;6.03;;;4.40;;
52942;SDS011;38809;53.300;6.614;2022-12-29T01:13:10;5.10;;;4.30;;
52942;SDS011;38809;53.300;6.614;2022-12-29T01:15:35;4.80;;;4.30;;
52942;SDS011;38809;53.300;6.614;2022-12-29T01:18:01;5.07;;;4.57;;
52942;SDS011;38809;53.300;6.614;2022-12-29T01:20:27;6.37;;;4.50;;
52942;SDS011;38809;53.300;6.614;2022-12-29T01:22:53;6.03;;;5.05;;
52942;SDS011;38809;53.300;6.614;2022-12-29T01:25:19;5.10;;;4.60;;
52942;SDS011;38809;53.300;6.614;2022-12-29T01:27:45;6.30;;;4.60;;
52942;SDS011;38809;53.300;6.614;2022-12-29T01:30:11;5.25;;;4.45;;
52942;SDS011;38809;53.300;6.614;2022-12-29T01:32:37;4.97;;;4.35;;
52942;SDS011;38809;53.300;6.614;2022-12-29T01:35:03;5.10;;;4.60;;
52942;SDS011;38809;53.300;6.614;2022-12-29T01:37:29;4.60;;;4.07;;
52942;SDS011;38809;53.300;6.614;2022-12-29T01:39:55;5.13;;;4.35;;
52942;SDS011;38809;53.300;6.614;2022-12-29T01:42:22;4.97;;;4.43;;
52942;SDS011;38809;53.300;6.614;2022-12-29T01:44:51;5.20;;;4.40;;
52942;SDS011;38809;53.300;6.614;2022-12-29T01:47:25;5.05;;;3.88;;
52942;SDS011;38809;53.300;6.614;2022-12-29T01:49:59;4.82;;;4.10;;
52942;SDS011;38809;53.300;6.614;2022-12-29T01:52:51;4.85;;;4.05;;
52942;SDS011;38809;53.300;6.614;2022-12-29T01:55:40;5.28;;;4.40;;
52942;SDS011;38809;53.300;6.614;2022-12-29T01:58:09;5.85;;;4.18;;
52942;SDS011;38809;53.300;6.614;2022-12-29T02:00:37;4.80;;;4.05;;
52942;SDS011;38809;53.300;6.614;2022-12-29T02:03:02;5.07;;;4.18;;
52942;SDS011;38809;53.300;6.614;2022-12-29T02:05:37;4.45;;;3.83;;
52942;SDS011;38809;53.300;6.614;2022-12-29T02:08:08;4.70;;;3.92;;
52942;SDS011;38809;53.300;6.614;2022-12-29T02:10:35;5.47;;;4.00;;
52942;SDS011;38809;53.300;6.614;2022-12-29T02:13:01;5.32;;;4.50;;
52942;SDS011;38809;53.300;6.614;2022-12-29T02:29:48;5.07;;;4.38;;
52942;SDS011;38809;53.300;6.614;2022-12-29T02:38:10;5.88;;;4.18;;
52942;SDS011;38809;53.300;6.614;2022-12-29T02:40:51;5.30;;;3.75;;
52942;SDS011;38809;53.300;6.614;2022-12-29T02:48:52;4.13;;;3.28;;
52942;SDS011;38809;53.300;6.614;2022-12-29T02:54:12;4.85;;;3.25;;
52942;SDS011;38809;53.300;6.614;2022-12-29T02:57:00;4.70;;;2.88;;
52942;SDS011;38809;53.300;6.614;2022-12-29T02:59:25;4.13;;;2.90;;
52942;SDS011;38809;53.300;6.614;2022-12-29T03:24:25;3.97;;;2.10;;
52942;SDS011;38809;53.300;6.614;2022-12-29T03:26:55;5.30;;;2.15;;
52942;SDS011;38809;53.300;6.614;2022-12-29T03:29:23;3.53;;;1.70;;
52942;SDS011;38809;53.300;6.614;2022-12-29T03:31:50;4.15;;;2.17;;
52942;SDS011;38809;53.300;6.614;2022-12-29T03:34:20;3.08;;;1.90;;
52942;SDS011;38809;53.300;6.614;2022-12-29T03:36:48;4.22;;;1.80;;
52942;SDS011;38809;53.300;6.614;2022-12-29T03:39:18;3.00;;;1.70;;
52942;SDS011;38809;53.300;6.614;2022-12-29T03:41:47;3.20;;;1.60;;
52942;SDS011;38809;53.300;6.614;2022-12-29T03:44:19;4.93;;;1.77;;
52942;SDS011;38809;53.300;6.614;2022-12-29T03:46:44;4.95;;;1.85;;
52942;SDS011;38809;53.300;6.614;2022-12-29T03:49:10;2.92;;;1.48;;
52942;SDS011;38809;53.300;6.614;2022-12-29T03:51:36;3.77;;;1.40;;
52942;SDS011;38809;53.300;6.614;2022-12-29T03:54:02;5.32;;;1.75;;
52942;SDS011;38809;53.300;6.614;2022-12-29T03:56:27;4.32;;;1.67;;
52942;SDS011;38809;53.300;6.614;2022-12-29T03:58:53;6.07;;;1.73;;
52942;SDS011;38809;53.300;6.614;2022-12-29T04:01:19;3.65;;;1.58;;
52942;SDS011;38809;53.300;6.614;2022-12-29T04:03:45;3.25;;;1.73;;
52942;SDS011;38809;53.300;6.614;2022-12-29T04:06:10;3.05;;;1.73;;
52942;SDS011;38809;53.300;6.614;2022-12-29T04:08:36;5.78;;;2.20;;
52942;SDS011;38809;53.300;6.614;2022-12-29T04:11:02;3.92;;;1.63;;
52942;SDS011;38809;53.300;6.614;2022-12-29T04:13:27;2.67;;;1.50;;
52942;SDS011;38809;53.300;6.614;2022-12-29T04:15:53;4.30;;;1.70;;
52942;SDS011;38809;53.300;6.614;2022-12-29T04:18:19;4.00;;;1.67;;
52942;SDS011;38809;53.300;6.614;2022-12-29T04:20:44;3.60;;;1.40;;
52942;SDS011;38809;53.300;6.614;2022-12-29T04:23:26;3.70;;;1.77;;
52942;SDS011;38809;53.300;6.614;2022-12-29T04:25:52;3.38;;;1.60;;
52942;SDS011;38809;53.300;6.614;2022-12-29T04:28:18;5.65;;;1.95;;
52942;SDS011;38809;53.300;6.614;2022-12-29T04:30:44;4.80;;;2.00;;
52942;SDS011;38809;53.300;6.614;2022-12-29T04:33:10;2.92;;;1.67;;
52942;SDS011;38809;53.300;6.614;2022-12-29T04:35:36;4.80;;;1.50;;
52942;SDS011;38809;53.300;6.614;2022-12-29T04:38:02;4.57;;;1.30;;
52942;SDS011;38809;53.300;6.614;2022-12-29T04:40:28;4.03;;;1.38;;
52942;SDS011;38809;53.300;6.614;2022-12-29T04:42:54;4.75;;;1.33;;
52942;SDS011;38809;53.300;6.614;2022-12-29T04:45:20;4.17;;;0.97;;
52942;SDS011;38809;53.300;6.614;2022-12-29T04:47:45;5.03;;;1.37;;
52942;SDS011;38809;53.300;6.614;2022-12-29T04:50:11;4.90;;;1.27;;
52942;SDS011;38809;53.300;6.614;2022-12-29T04:52:37;8.37;;;1.37;;
52942;SDS011;38809;53.300;6.614;2022-12-29T04:55:03;3.95;;;1.00;;
52942;SDS011;38809;53.300;6.614;2022-12-29T04:57:30;5.18;;;1.00;;
52942;SDS011;38809;53.300;6.614;2022-12-29T04:59:55;7.15;;;1.50;;
52942;SDS011;38809;53.300;6.614;2022-12-29T05:02:21;6.15;;;0.90;;
52942;SDS011;38809;53.300;6.614;2022-12-29T05:04:47;4.07;;;1.05;;
52942;SDS011;38809;53.300;6.614;2022-12-29T05:07:13;4.67;;;1.20;;
52942;SDS011;38809;53.300;6.614;2022-12-29T05:09:39;6.32;;;1.35;;
52942;SDS011;38809;53.300;6.614;2022-12-29T05:12:05;6.45;;;1.27;;
52942;SDS011;38809;53.300;6.614;2022-12-29T05:14:31;6.20;;;1.27;;
52942;SDS011;38809;53.300;6.614;2022-12-29T05:16:57;8.27;;;1.60;;
52942;SDS011;38809;53.300;6.614;2022-12-29T05:19:23;6.80;;;1.37;;
52942;SDS011;38809;53.300;6.614;2022-12-29T05:21:48;6.03;;;1.60;;
52942;SDS011;38809;53.300;6.614;2022-12-29T05:24:14;6.25;;;1.40;;
52942;SDS011;38809;53.300;6.614;2022-12-29T05:26:40;12.10;;;2.00;;
52942;SDS011;38809;53.300;6.614;2022-12-29T05:29:06;9.43;;;1.55;;
52942;SDS011;38809;53.300;6.614;2022-12-29T05:31:32;7.63;;;1.33;;
52942;SDS011;38809;53.300;6.614;2022-12-29T05:34:00;7.05;;;1.33;;
52942;SDS011;38809;53.300;6.614;2022-12-29T05:36:26;6.93;;;1.52;;
52942;SDS011;38809;53.300;6.614;2022-12-29T05:38:52;5.57;;;1.75;;
52942;SDS011;38809;53.300;6.614;2022-12-29T05:41:18;9.63;;;1.90;;
52942;SDS011;38809;53.300;6.614;2022-12-29T05:43:44;8.95;;;2.25;;
52942;SDS011;38809;53.300;6.614;2022-12-29T05:46:09;8.60;;;1.90;;
52942;SDS011;38809;53.300;6.614;2022-12-29T05:48:35;9.98;;;2.15;;
52942;SDS011;38809;53.300;6.614;2022-12-29T05:51:01;7.03;;;1.60;;
52942;SDS011;38809;53.300;6.614;2022-12-29T05:53:27;8.70;;;1.87;;
52942;SDS011;38809;53.300;6.614;2022-12-29T05:55:52;6.97;;;1.83;;
52942;SDS011;38809;53.300;6.614;2022-12-29T05:58:19;8.73;;;2.27;;
52942;SDS011;38809;53.300;6.614;2022-12-29T06:00:44;7.53;;;1.77;;
52942;SDS011;38809;53.300;6.614;2022-12-29T06:03:10;8.27;;;1.50;;
52942;SDS011;38809;53.300;6.614;2022-12-29T06:05:36;9.40;;;2.10;;
52942;SDS011;38809;53.300;6.614;2022-12-29T06:08:02;11.70;;;2.50;;
52942;SDS011;38809;53.300;6.614;2022-12-29T06:10:28;10.20;;;2.28;;
52942;SDS011;38809;53.300;6.614;2022-12-29T06:12:53;9.45;;;2.00;;
52942;SDS011;38809;53.300;6.614;2022-12-29T06:15:19;6.97;;;1.90;;
52942;SDS011;38809;53.300;6.614;2022-12-29T06:17:45;8.37;;;1.60;;
52942;SDS011;38809;53.300;6.614;2022-12-29T06:20:11;9.90;;;2.25;;
52942;SDS011;38809;53.300;6.614;2022-12-29T06:22:37;6.73;;;1.90;;
52942;SDS011;38809;53.300;6.614;2022-12-29T06:25:03;8.50;;;1.92;;
52942;SDS011;38809;53.300;6.614;2022-12-29T06:27:30;7.28;;;1.45;;
52942;SDS011;38809;53.300;6.614;2022-12-29T06:29:56;8.50;;;2.15;;
52942;SDS011;38809;53.300;6.614;2022-12-29T06:32:22;8.40;;;2.40;;
52942;SDS011;38809;53.300;6.614;2022-12-29T06:34:47;7.53;;;1.70;;
52942;SDS011;38809;53.300;6.614;2022-12-29T06:37:13;9.05;;;1.67;;
52942;SDS011;38809;53.300;6.614;2022-12-29T06:39:39;10.68;;;2.17;;
52942;SDS011;38809;53.300;6.614;2022-12-29T06:42:05;7.43;;;2.30;;
52942;SDS011;38809;53.300;6.614;2022-12-29T06:44:31;8.43;;;1.83;;
52942;SDS011;38809;53.300;6.614;2022-12-29T06:46:57;12.00;;;2.73;;
52942;SDS011;38809;53.300;6.614;2022-12-29T06:49:23;10.68;;;2.25;;
52942;SDS011;38809;53.300;6.614;2022-12-29T06:51:48;12.35;;;2.63;;
52942;SDS011;38809;53.300;6.614;2022-12-29T06:54:14;7.60;;;1.77;;
52942;SDS011;38809;53.300;6.614;2022-12-29T06:56:40;10.03;;;2.40;;
52942;SDS011;38809;53.300;6.614;2022-12-29T06:59:05;8.00;;;1.80;;
52942;SDS011;38809;53.300;6.614;2022-12-29T07:01:31;8.63;;;2.17;;
52942;SDS011;38809;53.300;6.614;2022-12-29T07:03:57;15.80;;;3.15;;
52942;SDS011;38809;53.300;6.614;2022-12-29T07:06:23;9.88;;;2.58;;
52942;SDS011;38809;53.300;6.614;2022-12-29T07:08:48;16.23;;;3.05;;
52942;SDS011;38809;53.300;6.614;2022-12-29T07:11:14;7.97;;;2.10;;
52942;SDS011;38809;53.300;6.614;2022-12-29T07:13:40;11.85;;;2.58;;
52942;SDS011;38809;53.300;6.614;2022-12-29T07:16:08;8.37;;;2.10;;
52942;SDS011;38809;53.300;6.614;2022-12-29T07:18:35;8.30;;;2.40;;
52942;SDS011;38809;53.300;6.614;2022-12-29T07:21:01;13.23;;;2.50;;
52942;SDS011;38809;53.300;6.614;2022-12-29T07:23:28;14.30;;;2.22;;
52942;SDS011;38809;53.300;6.614;2022-12-29T07:26:00;9.90;;;2.10;;
52942;SDS011;38809;53.300;6.614;2022-12-29T07:28:34;12.20;;;2.40;;
52942;SDS011;38809;53.300;6.614;2022-12-29T07:31:00;7.35;;;2.20;;
52942;SDS011;38809;53.300;6.614;2022-12-29T07:33:29;11.50;;;2.30;;
52942;SDS011;38809;53.300;6.614;2022-12-29T07:35:56;11.23;;;2.25;;
52942;SDS011;38809;53.300;6.614;2022-12-29T07:38:22;11.68;;;1.88;;
52942;SDS011;38809;53.300;6.614;2022-12-29T07:40:48;12.18;;;2.45;;
52942;SDS011;38809;53.300;6.614;2022-12-29T07:43:13;9.82;;;2.00;;
52942;SDS011;38809;53.300;6.614;2022-12-29T07:45:39;9.20;;;1.92;;
52942;SDS011;38809;53.300;6.614;2022-12-29T07:48:05;11.98;;;2.10;;
52942;SDS011;38809;53.300;6.614;2022-12-29T07:50:33;13.15;;;2.28;;
52942;SDS011;38809;53.300;6.614;2022-12-29T07:52:59;8.25;;;2.20;;
52942;SDS011;38809;53.300;6.614;2022-12-29T07:55:25;9.85;;;2.05;;
52942;SDS011;38809;53.300;6.614;2022-12-29T07:57:52;8.10;;;1.85;;
52942;SDS011;38809;53.300;6.614;2022-12-29T08:00:18;9.90;;;2.20;;
52942;SDS011;38809;53.300;6.614;2022-12-29T08:02:44;7.07;;;1.95;;
52942;SDS011;38809;53.300;6.614;2022-12-29T08:05:10;9.25;;;1.90;;
52942;SDS011;38809;53.300;6.614;2022-12-29T08:07:36;6.28;;;1.55;;
52942;SDS011;38809;53.300;6.614;2022-12-29T08:10:02;9.73;;;2.55;;
52942;SDS011;38809;53.300;6.614;2022-12-29T08:12:28;8.43;;;2.05;;
52942;SDS011;38809;53.300;6.614;2022-12-29T08:14:54;9.30;;;2.33;;
52942;SDS011;38809;53.300;6.614;2022-12-29T08:17:20;6.90;;;1.83;;
52942;SDS011;38809;53.300;6.614;2022-12-29T08:19:45;9.90;;;2.25;;
52942;SDS011;38809;53.300;6.614;2022-12-29T08:22:12;15.65;;;3.25;;
52942;SDS011;38809;53.300;6.614;2022-12-29T08:24:39;7.63;;;2.30;;
52942;SDS011;38809;53.300;6.614;2022-12-29T08:27:05;10.05;;;2.20;;
52942;SDS011;38809;53.300;6.614;2022-12-29T08:29:30;8.95;;;2.03;;
52942;SDS011;38809;53.300;6.614;2022-12-29T08:31:56;8.77;;;2.40;;
52942;SDS011;38809;53.300;6.614;2022-12-29T08:34:22;10.93;;;2.10;;
52942;SDS011;38809;53.300;6.614;2022-12-29T08:36:48;9.98;;;2.40;;
52942;SDS011;38809;53.300;6.614;2022-12-29T08:39:14;9.88;;;2.20;;
52942;SDS011;38809;53.300;6.614;2022-12-29T08:41:40;14.07;;;2.67;;
52942;SDS011;38809;53.300;6.614;2022-12-29T08:44:06;13.40;;;2.47;;
52942;SDS011;38809;53.300;6.614;2022-12-29T08:46:32;9.25;;;2.22;;
52942;SDS011;38809;53.300;6.614;2022-12-29T08:48:58;9.53;;;2.33;;
52942;SDS011;38809;53.300;6.614;2022-12-29T08:51:24;13.15;;;2.47;;
52942;SDS011;38809;53.300;6.614;2022-12-29T08:53:49;11.18;;;2.17;;
52942;SDS011;38809;53.300;6.614;2022-12-29T08:56:15;12.05;;;2.40;;
52942;SDS011;38809;53.300;6.614;2022-12-29T08:58:41;11.52;;;1.80;;
52942;SDS011;38809;53.300;6.614;2022-12-29T09:01:07;8.67;;;2.27;;
52942;SDS011;38809;53.300;6.614;2022-12-29T09:03:34;11.30;;;2.70;;
52942;SDS011;38809;53.300;6.614;2022-12-29T09:06:00;7.45;;;1.63;;
52942;SDS011;38809;53.300;6.614;2022-12-29T09:08:25;12.50;;;2.40;;
52942;SDS011;38809;53.300;6.614;2022-12-29T09:10:51;9.52;;;2.30;;
52942;SDS011;38809;53.300;6.614;2022-12-29T09:13:17;10.95;;;2.22;;
52942;SDS011;38809;53.300;6.614;2022-12-29T09:15:43;10.27;;;2.35;;
52942;SDS011;38809;53.300;6.614;2022-12-29T09:18:09;14.68;;;2.85;;
52942;SDS011;38809;53.300;6.614;2022-12-29T09:20:36;12.65;;;2.78;;
52942;SDS011;38809;53.300;6.614;2022-12-29T09:23:02;11.32;;;2.10;;
52942;SDS011;38809;53.300;6.614;2022-12-29T09:27:54;16.80;;;2.63;;
52942;SDS011;38809;53.300;6.614;2022-12-29T09:30:21;16.90;;;3.75;;
52942;SDS011;38809;53.300;6.614;2022-12-29T09:32:48;10.73;;;3.05;;
52942;SDS011;38809;53.300;6.614;2022-12-29T09:35:14;14.15;;;3.30;;
52942;SDS011;38809;53.300;6.614;2022-12-29T09:37:41;14.70;;;3.13;;
52942;SDS011;38809;53.300;6.614;2022-12-29T09:40:17;17.10;;;3.10;;
52942;SDS011;38809;53.300;6.614;2022-12-29T09:43:03;17.58;;;3.35;;
52942;SDS011;38809;53.300;6.614;2022-12-29T09:45:36;13.65;;;2.50;;
52942;SDS011;38809;53.300;6.614;2022-12-29T09:48:20;12.75;;;3.10;;
52942;SDS011;38809;53.300;6.614;2022-12-29T09:50:51;10.82;;;2.45;;
52942;SDS011;38809;53.300;6.614;2022-12-29T09:53:25;8.90;;;2.40;;
52942;SDS011;38809;53.300;6.614;2022-12-29T09:55:57;13.23;;;2.22;;
52942;SDS011;38809;53.300;6.614;2022-12-29T09:58:41;10.88;;;2.70;;
52942;SDS011;38809;53.300;6.614;2022-12-29T10:03:54;8.88;;;2.50;;
52942;SDS011;38809;53.300;6.614;2022-12-29T10:17:15;8.50;;;2.20;;
52942;SDS011;38809;53.300;6.614;2022-12-29T10:25:19;10.07;;;2.35;;
52942;SDS011;38809;53.300;6.614;2022-12-29T10:27:48;13.38;;;2.78;;
52942;SDS011;38809;53.300;6.614;2022-12-29T10:30:14;10.00;;;2.25;;
52942;SDS011;38809;53.300;6.614;2022-12-29T10:35:12;9.40;;;2.58;;
52942;SDS011;38809;53.300;6.614;2022-12-29T10:37:45;10.45;;;2.15;;
52942;SDS011;38809;53.300;6.614;2022-12-29T10:40:32;9.40;;;1.77;;
52942;SDS011;38809;53.300;6.614;2022-12-29T10:43:07;7.45;;;1.63;;
52942;SDS011;38809;53.300;6.614;2022-12-29T10:45:53;8.85;;;1.98;;
52942;SDS011;38809;53.300;6.614;2022-12-29T10:48:22;10.63;;;1.92;;
52942;SDS011;38809;53.300;6.614;2022-12-29T10:50:56;5.85;;;1.67;;
52942;SDS011;38809;53.300;6.614;2022-12-29T10:53:25;7.78;;;1.90;;
52942;SDS011;38809;53.300;6.614;2022-12-29T10:56:13;11.40;;;2.25;;
52942;SDS011;38809;53.300;6.614;2022-12-29T10:58:47;13.10;;;2.92;;
52942;SDS011;38809;53.300;6.614;2022-12-29T11:01:15;13.70;;;2.60;;
52942;SDS011;38809;53.300;6.614;2022-12-29T11:06:46;17.13;;;3.58;;
52942;SDS011;38809;53.300;6.614;2022-12-29T11:11:41;13.02;;;2.38;;
52942;SDS011;38809;53.300;6.614;2022-12-29T11:14:12;16.38;;;2.75;;
52942;SDS011;38809;53.300;6.614;2022-12-29T11:16:39;18.42;;;3.08;;
52942;SDS011;38809;53.300;6.614;2022-12-29T11:19:19;14.57;;;3.15;;
52942;SDS011;38809;53.300;6.614;2022-12-29T11:21:49;14.52;;;2.80;;
52942;SDS011;38809;53.300;6.614;2022-12-29T11:26:53;16.42;;;3.20;;
52942;SDS011;38809;53.300;6.614;2022-12-29T11:29:40;14.45;;;3.17;;
52942;SDS011;38809;53.300;6.614;2022-12-29T11:32:26;16.20;;;3.60;;
52942;SDS011;38809;53.300;6.614;2022-12-29T11:34:55;18.55;;;3.60;;
52942;SDS011;38809;53.300;6.614;2022-12-29T11:37:25;17.08;;;2.75;;
52942;SDS011;38809;53.300;6.614;2022-12-29T11:47:44;15.48;;;3.45;;
52942;SDS011;38809;53.300;6.614;2022-12-29T11:50:20;12.45;;;2.92;;
52942;SDS011;38809;53.300;6.614;2022-12-29T11:52:49;16.58;;;3.17;;
52942;SDS011;38809;53.300;6.614;2022-12-29T11:55:23;12.55;;;3.10;;
52942;SDS011;38809;53.300;6.614;2022-12-29T11:57:51;14.55;;;3.33;;
52942;SDS011;38809;53.300;6.614;2022-12-29T12:00:23;17.60;;;3.90;;
52942;SDS011;38809;53.300;6.614;2022-12-29T12:03:01;15.40;;;3.30;;
52942;SDS011;38809;53.300;6.614;2022-12-29T12:11:11;11.77;;;2.75;;
52942;SDS011;38809;53.300;6.614;2022-12-29T12:13:37;14.25;;;2.70;;
52942;SDS011;38809;53.300;6.614;2022-12-29T12:16:33;11.57;;;3.13;;
52942;SDS011;38809;53.300;6.614;2022-12-29T12:22:00;18.77;;;3.17;;
52942;SDS011;38809;53.300;6.614;2022-12-29T12:38:40;11.77;;;3.78;;
52942;SDS011;38809;53.300;6.614;2022-12-29T12:49:18;8.18;;;1.83;;
52942;SDS011;38809;53.300;6.614;2022-12-29T13:00:12;9.23;;;1.60;;
52942;SDS011;38809;53.300;6.614;2022-12-29T13:10:53;7.30;;;1.40;;
52942;SDS011;38809;53.300;6.614;2022-12-29T13:16:40;9.23;;;2.08;;
52942;SDS011;38809;53.300;6.614;2022-12-29T13:22:03;7.80;;;1.85;;
52942;SDS011;38809;53.300;6.614;2022-12-29T13:24:53;7.55;;;1.88;;
52942;SDS011;38809;53.300;6.614;2022-12-29T13:30:09;9.77;;;1.80;;
52942;SDS011;38809;53.300;6.614;2022-12-29T13:33:03;6.57;;;1.60;;
52942;SDS011;38809;53.300;6.614;2022-12-29T13:35:40;5.28;;;1.20;;
52942;SDS011;38809;53.300;6.614;2022-12-29T13:38:17;9.05;;;1.52;;
52942;SDS011;38809;53.300;6.614;2022-12-29T13:40:49;6.50;;;1.42;;
52942;SDS011;38809;53.300;6.614;2022-12-29T13:43:19;7.40;;;1.50;;
52942;SDS011;38809;53.300;6.614;2022-12-29T13:45:48;5.70;;;1.70;;
52942;SDS011;38809;53.300;6.614;2022-12-29T13:48:22;7.50;;;1.50;;
52942;SDS011;38809;53.300;6.614;2022-12-29T13:50:57;8.32;;;1.58;;
52942;SDS011;38809;53.300;6.614;2022-12-29T14:01:43;7.80;;;1.73;;
52942;SDS011;38809;53.300;6.614;2022-12-29T14:04:28;8.23;;;1.85;;
52942;SDS011;38809;53.300;6.614;2022-12-29T14:07:04;10.93;;;1.58;;
52942;SDS011;38809;53.300;6.614;2022-12-29T14:12:40;7.85;;;1.48;;
52942;SDS011;38809;53.300;6.614;2022-12-29T14:17:34;9.48;;;1.65;;
52942;SDS011;38809;53.300;6.614;2022-12-29T14:20:01;8.18;;;1.75;;
52942;SDS011;38809;53.300;6.614;2022-12-29T14:22:29;8.25;;;1.63;;
52942;SDS011;38809;53.300;6.614;2022-12-29T14:24:55;8.15;;;1.85;;
52942;SDS011;38809;53.300;6.614;2022-12-29T14:29:48;8.23;;;1.65;;
52942;SDS011;38809;53.300;6.614;2022-12-29T14:34:47;7.50;;;1.83;;
52942;SDS011;38809;53.300;6.614;2022-12-29T14:37:26;6.32;;;1.45;;
52942;SDS011;38809;53.300;6.614;2022-12-29T14:42:39;8.35;;;2.30;;
52942;SDS011;38809;53.300;6.614;2022-12-29T14:45:08;9.50;;;1.80;;
52942;SDS011;38809;53.300;6.614;2022-12-29T14:47:53;9.43;;;1.77;;
52942;SDS011;38809;53.300;6.614;2022-12-29T14:58:02;10.02;;;3.25;;
52942;SDS011;38809;53.300;6.614;2022-12-29T15:00:31;8.52;;;2.10;;
52942;SDS011;38809;53.300;6.614;2022-12-29T15:03:22;10.35;;;2.55;;
52942;SDS011;38809;53.300;6.614;2022-12-29T15:08:37;10.65;;;2.00;;
52942;SDS011;38809;53.300;6.614;2022-12-29T15:11:12;10.90;;;2.22;;
52942;SDS011;38809;53.300;6.614;2022-12-29T15:13:41;9.35;;;1.98;;
52942;SDS011;38809;53.300;6.614;2022-12-29T15:16:24;10.30;;;2.22;;
52942;SDS011;38809;53.300;6.614;2022-12-29T15:18:54;12.63;;;2.38;;
52942;SDS011;38809;53.300;6.614;2022-12-29T15:21:24;8.95;;;2.15;;
52942;SDS011;38809;53.300;6.614;2022-12-29T15:23:51;8.65;;;2.28;;
52942;SDS011;38809;53.300;6.614;2022-12-29T15:28:48;6.55;;;2.10;;
52942;SDS011;38809;53.300;6.614;2022-12-29T15:31:16;10.73;;;1.98;;
52942;SDS011;38809;53.300;6.614;2022-12-29T15:33:48;14.85;;;2.53;;
52942;SDS011;38809;53.300;6.614;2022-12-29T15:36:23;12.57;;;3.05;;
52942;SDS011;38809;53.300;6.614;2022-12-29T15:38:50;11.20;;;2.70;;
52942;SDS011;38809;53.300;6.614;2022-12-29T15:46:38;8.65;;;2.10;;
52942;SDS011;38809;53.300;6.614;2022-12-29T15:49:05;9.70;;;2.50;;
52942;SDS011;38809;53.300;6.614;2022-12-29T15:51:38;7.85;;;2.03;;
52942;SDS011;38809;53.300;6.614;2022-12-29T15:56:37;7.57;;;1.80;;
52942;SDS011;38809;53.300;6.614;2022-12-29T15:59:03;9.07;;;2.00;;
52942;SDS011;38809;53.300;6.614;2022-12-29T16:01:35;7.32;;;1.88;;
52942;SDS011;38809;53.300;6.614;2022-12-29T16:04:06;9.93;;;2.22;;
52942;SDS011;38809;53.300;6.614;2022-12-29T16:06:37;9.88;;;2.45;;
52942;SDS011;38809;53.300;6.614;2022-12-29T16:09:18;11.73;;;2.42;;
52942;SDS011;38809;53.300;6.614;2022-12-29T16:11:54;10.65;;;2.47;;
52942;SDS011;38809;53.300;6.614;2022-12-29T16:14:33;9.00;;;2.60;;
52942;SDS011;38809;53.300;6.614;2022-12-29T16:17:12;10.82;;;2.33;;
52942;SDS011;38809;53.300;6.614;2022-12-29T16:25:02;9.55;;;2.53;;
52942;SDS011;38809;53.300;6.614;2022-12-29T16:27:44;9.55;;;2.10;;
52942;SDS011;38809;53.300;6.614;2022-12-29T16:30:20;10.68;;;2.22;;
52942;SDS011;38809;53.300;6.614;2022-12-29T16:32:47;13.90;;;4.40;;
52942;SDS011;38809;53.300;6.614;2022-12-29T16:37:40;10.80;;;3.20;;
52942;SDS011;38809;53.300;6.614;2022-12-29T16:40:23;10.65;;;5.07;;
52942;SDS011;38809;53.300;6.614;2022-12-29T16:43:01;15.45;;;3.97;;
52942;SDS011;38809;53.300;6.614;2022-12-29T16:50:39;5.97;;;1.70;;
52942;SDS011;38809;53.300;6.614;2022-12-29T16:53:15;6.88;;;1.67;;
52942;SDS011;38809;53.300;6.614;2022-12-29T16:58:15;5.10;;;1.50;;
52942;SDS011;38809;53.300;6.614;2022-12-29T17:00:47;11.48;;;2.45;;
52942;SDS011;38809;53.300;6.614;2022-12-29T17:03:13;9.63;;;1.88;;
52942;SDS011;38809;53.300;6.614;2022-12-29T17:05:40;7.80;;;1.90;;
52942;SDS011;38809;53.300;6.614;2022-12-29T17:08:16;10.60;;;1.63;;
52942;SDS011;38809;53.300;6.614;2022-12-29T17:10:51;7.97;;;2.20;;
52942;SDS011;38809;53.300;6.614;2022-12-29T17:13:39;7.47;;;2.10;;
52942;SDS011;38809;53.300;6.614;2022-12-29T17:16:05;6.93;;;2.38;;
52942;SDS011;38809;53.300;6.614;2022-12-29T17:18:33;7.15;;;2.67;;
52942;SDS011;38809;53.300;6.614;2022-12-29T17:21:11;8.10;;;2.83;;
52942;SDS011;38809;53.300;6.614;2022-12-29T17:23:37;8.48;;;2.80;;
52942;SDS011;38809;53.300;6.614;2022-12-29T17:26:12;11.57;;;3.80;;
52942;SDS011;38809;53.300;6.614;2022-12-29T17:28:37;7.32;;;3.50;;
52942;SDS011;38809;53.300;6.614;2022-12-29T17:31:04;12.45;;;4.68;;
52942;SDS011;38809;53.300;6.614;2022-12-29T17:33:39;8.77;;;3.03;;
52942;SDS011;38809;53.300;6.614;2022-12-29T17:36:07;9.32;;;2.35;;
52942;SDS011;38809;53.300;6.614;2022-12-29T17:38:36;6.22;;;1.83;;
52942;SDS011;38809;53.300;6.614;2022-12-29T17:41:02;8.95;;;2.58;;
52942;SDS011;38809;53.300;6.614;2022-12-29T17:43:28;11.05;;;2.90;;
52942;SDS011;38809;53.300;6.614;2022-12-29T17:45:55;11.02;;;2.90;;
52942;SDS011;38809;53.300;6.614;2022-12-29T17:48:23;7.95;;;3.30;;
52942;SDS011;38809;53.300;6.614;2022-12-29T17:50:50;11.90;;;2.78;;
52942;SDS011;38809;53.300;6.614;2022-12-29T17:53:21;14.82;;;5.13;;
52942;SDS011;38809;53.300;6.614;2022-12-29T17:55:50;10.88;;;4.20;;
52942;SDS011;38809;53.300;6.614;2022-12-29T17:58:17;11.90;;;3.33;;
52942;SDS011;38809;53.300;6.614;2022-12-29T18:00:44;15.05;;;3.90;;
52942;SDS011;38809;53.300;6.614;2022-12-29T18:03:14;20.45;;;3.13;;
52942;SDS011;38809;53.300;6.614;2022-12-29T18:05:42;14.05;;;2.65;;
52942;SDS011;38809;53.300;6.614;2022-12-29T18:08:08;10.80;;;2.88;;
52942;SDS011;38809;53.300;6.614;2022-12-29T18:10:36;12.60;;;2.55;;
52942;SDS011;38809;53.300;6.614;2022-12-29T18:13:02;12.73;;;2.55;;
52942;SDS011;38809;53.300;6.614;2022-12-29T18:15:29;11.88;;;3.20;;
52942;SDS011;38809;53.300;6.614;2022-12-29T18:18:15;12.82;;;2.63;;
52942;SDS011;38809;53.300;6.614;2022-12-29T18:20:43;11.88;;;4.03;;
52942;SDS011;38809;53.300;6.614;2022-12-29T18:23:18;26.25;;;10.10;;
52942;SDS011;38809;53.300;6.614;2022-12-29T18:25:47;16.05;;;4.15;;
52942;SDS011;38809;53.300;6.614;2022-12-29T18:28:19;12.85;;;3.22;;